Impacts METAR Board
IDs:

KLAS - Las Vegas/McCarran I, NV, US

Updated at: 0300 UTC 18 Jun 2019
Potential Impact None Slight Moderate High
Time 17/15Z 17/16Z 17/17Z 17/18Z 17/19Z 17/20Z 17/21Z 17/22Z 17/23Z 18/00Z 18/01Z 18/02Z 18/03Z
Temp78 80 85 88 90 93 95 97 98 99 97 96 95
Dewpt48 49 48 47 46 45 41 36 34 32 30 30 31
Altim29.87 29.88 29.88 29.87 29.86 29.84 29.80 29.79 29.76 29.75 29.74 29.76 29.78
VIS10 10 10 10 10 10 10 10 10 10 10 10 10
CIG-- -- -- -- -- -- -- -- -- 250 250 250 250
CoverSCTSCTSCTSCTSCTSCTSCTFEWSCTBKNBKNBKNBKN
FltCatVFRVFRVFRVFRVFRVFRVFRVFRVFRVFRVFRVFRVFR
WX--------------------------
WDir6000504000036040506030
WSpd3 0 5 6 3 0 3 5 8 7 5 7 7
WGst-- -- -- -- -- -- -- -- -- -- -- -- --
Raw hourly METARs
KLAS 171456Z 06003KT 10SM FEW007 SCT150 SCT250 26/09 A2987 RMK AO2 SLP087 FU FEW007 FU PLUME N ACC DSNT N T02560089 51016
KLAS 171556Z 00000KT 10SM SCT150 SCT250 27/09 A2988 RMK AO2 SLP093 FU VC W-N ACC DSNT N T02670094
KLAS 171656Z VRB05KT 10SM FEW120 SCT250 29/09 A2988 RMK AO2 SLP091 T02940089
KLAS 171756Z 05006KT 10SM FEW120 SCT250 31/08 A2987 RMK AO2 LTG DSNT NW SLP088 TCU DSNT N T03110083 10317 20250 50000
KLAS 171856Z 04003KT 10SM SCT120 SCT250 32/08 A2986 RMK AO2 SLP084 CB DSNT N AND NE ACC DSNT ALQDS T03220078
KLAS 171956Z 00000KT 10SM SCT120 SCT250 34/07 A2984 RMK AO2 SLP077 ACC DSNT ALQDS T03390072
KLAS 172056Z VRB03KT 10SM SCT120 SCT250 35/05 A2980 RMK AO2 SLP065 ACC DSNT ALQDS T03500050 58022
KLAS 172156Z VRB05KT 10SM FEW120 FEW250 36/02 A2979 RMK AO2 SLP058 CB DSNT E T03610022
KLAS 172256Z 36008KT 10SM FEW120 SCT250 37/01 A2976 RMK AO2 SLP049 CB DSNT E T03670011
KLAS 172356Z 04007KT 10SM FEW120 BKN250 37/00 A2975 RMK AO2 SLP043 T03720000 10378 20311 56018
KLAS 180056Z 05005KT 10SM FEW120 BKN250 36/M01 A2974 RMK AO2 SLP044 ACC N-NE CB DSNT E T03611011
KLAS 180156Z 06007KT 10SM FEW120 BKN250 36/M01 A2976 RMK AO2 SLP050 ACC NW-NE CB DSNT E T03561011
KLAS 180256Z 03007KT 10SM FEW120 BKN250 35/M01 A2978 RMK AO2 SLP055 T03501006 53009



Page loaded:  03:01 UTC  |   08:01 PM Pacific  |   09:01 PM Mountain  |   10:01 PM Central  |   11:01 PM Eastern

 

ADVISORIES

FORECASTS

FORECASTS

OBSERVATIONS

USER TOOLS

ABOUT US